Time;durP1;ratioP1;P1;durP2;ratioP2;P2;SDS_P1;SDS_P2;PMS_P1;PMS_P2;Temp;Humidity;BMP_temperature;BMP_pressure;BME280_temperature;BME280_humidity;BME280_pressure;Samples;Min_cycle;Max_cycle;Signal;HPM_P1;HPM_P2
2022/05/03 00:00:08;;;;;;;3.53;3.22;;;;;;;10.75;67.17;98473.06;4090342;28;20203;-52
2022/05/03 00:02:25;;;;;;;3.22;3.00;;;;;;;10.70;67.09;98468.34;4089112;28;20208;-51
2022/05/03 00:04:33;;;;;;;3.30;3.00;;;;;;;10.65;66.84;98473.75;4095170;28;20200;-54
2022/05/03 00:06:57;;;;;;;3.42;3.13;;;;;;;10.62;66.81;98465.22;4100705;28;20244;-53
2022/05/03 00:09:07;;;;;;;3.17;2.90;;;;;;;10.56;66.58;98466.22;4086381;28;20239;-53
2022/05/03 00:11:27;;;;;;;3.22;3.03;;;;;;;10.51;66.89;98469.69;4090765;28;20222;-53
2022/05/03 00:13:43;;;;;;;4.50;4.10;;;;;;;10.46;67.06;98460.56;4087936;28;20586;-53
2022/05/03 00:15:45;;;;;;;3.70;3.38;;;;;;;10.39;67.27;98466.22;4089732;28;20224;-54
2022/05/03 00:17:48;;;;;;;3.45;3.15;;;;;;;10.40;67.34;98461.56;4079327;28;20205;-52
2022/05/03 00:19:50;;;;;;;2.95;2.75;;;;;;;10.38;67.46;98463.72;4090644;28;20208;-53
2022/05/03 00:21:53;;;;;;;3.60;3.30;;;;;;;10.36;67.42;98454.97;4091580;28;20204;-52
2022/05/03 00:23:55;;;;;;;4.20;3.90;;;;;;;10.36;67.63;98446.75;4089932;29;20204;-53
2022/05/03 00:25:57;;;;;;;3.13;2.92;;;;;;;10.32;67.32;98453.78;4090240;28;20258;-54
2022/05/03 00:28:00;;;;;;;3.47;3.10;;;;;;;10.31;67.51;98449.41;4102588;28;20226;-54
2022/05/03 00:30:04;;;;;;;3.58;3.25;;;;;;;10.27;67.41;98451.81;4104175;28;20206;-53
2022/05/03 00:32:06;;;;;;;3.03;2.83;;;;;;;10.27;67.48;98445.53;4101933;28;20200;-53
2022/05/03 00:34:08;;;;;;;3.75;3.45;;;;;;;10.27;67.62;98440.06;4104910;28;20636;-51
2022/05/03 00:36:10;;;;;;;3.38;3.17;;;;;;;10.27;67.61;98440.06;4087317;28;20235;-54
2022/05/03 00:38:11;;;;;;;3.72;3.42;;;;;;;10.29;67.77;98440.63;4089652;28;20207;-51
2022/05/03 00:40:14;;;;;;;3.22;3.03;;;;;;;10.30;67.61;98443.13;4102252;28;20259;-52
2022/05/03 00:42:58;;;;;;;3.85;3.60;;;;;;;10.33;67.64;98439.03;4093152;28;20311;-52
2022/05/03 00:45:12;;;;;;;4.00;3.70;;;;;;;10.26;67.71;98439.22;4088125;28;20674;-53
2022/05/03 00:47:16;;;;;;;4.53;3.20;;;;;;;10.13;68.88;98455.97;4103879;28;20684;-53
2022/05/03 00:49:17;;;;;;;5.15;4.65;;;;;;;10.13;69.07;98452.38;4088065;28;20224;-52
2022/05/03 00:51:27;;;;;;;4.30;4.00;;;;;;;10.11;69.14;98446.34;4102158;28;20206;-52
2022/05/03 00:53:32;;;;;;;3.63;3.35;;;;;;;10.21;69.04;98447.34;4093553;29;20562;-53
2022/05/03 00:56:14;;;;;;;3.60;3.28;;;;;;;10.21;69.04;98452.00;4092708;28;20242;-52
2022/05/03 00:58:19;;;;;;;5.03;4.63;;;;;;;10.27;68.91;98440.88;4102094;28;20202;-51
2022/05/03 01:00:23;;;;;;;4.25;3.85;;;;;;;10.30;69.05;98440.38;4099344;28;20211;-52
2022/05/03 01:02:42;;;;;;;4.15;3.85;;;;;;;10.28;68.96;98444.44;4090604;28;20207;-52
2022/05/03 01:05:09;;;;;;;3.45;3.13;;;;;;;10.29;68.82;98449.66;4088711;28;20210;-52
2022/05/03 01:07:23;;;;;;;4.28;3.97;;;;;;;10.34;68.50;98446.19;4087085;29;20699;-52
2022/05/03 01:10:03;;;;;;;3.88;3.58;;;;;;;10.35;68.46;98447.84;4087067;28;20212;-52
2022/05/03 01:12:08;;;;;;;3.33;3.03;;;;;;;10.31;68.73;98446.66;4102242;28;20199;-53
2022/05/03 01:14:30;;;;;;;3.72;3.42;;;;;;;10.28;68.44;98442.53;4087595;28;20789;-52
2022/05/03 01:16:41;;;;;;;4.45;2.85;;;;;;;10.25;68.61;98444.94;4103590;28;20334;-52
2022/05/03 01:19:10;;;;;;;4.20;3.60;;;;;;;10.20;68.45;98444.84;4101507;28;20213;-53
2022/05/03 01:21:24;;;;;;;3.25;2.95;;;;;;;10.18;68.61;98433.34;4085825;28;20234;-51
2022/05/03 01:23:44;;;;;;;4.30;3.15;;;;;;;10.16;68.64;98439.03;4101383;28;20271;-52
2022/05/03 01:25:58;;;;;;;3.67;3.38;;;;;;;10.13;68.50;98442.28;4086371;28;20651;-51
2022/05/03 01:28:29;;;;;;;4.28;3.97;;;;;;;10.09;68.64;98440.31;4102565;28;20215;-54
2022/05/03 01:30:31;;;;;;;5.53;5.03;;;;;;;10.07;68.88;98440.53;4087362;28;20219;-52
2022/05/03 01:32:34;;;;;;;3.65;3.45;;;;;;;10.08;69.06;98441.38;4075266;29;20216;-52
2022/05/03 01:34:36;;;;;;;3.75;3.45;;;;;;;10.10;68.75;98444.69;4093657;28;20222;-52
2022/05/03 01:36:57;;;;;;;3.95;3.65;;;;;;;10.11;68.55;98443.63;4101998;28;20235;-52
2022/05/03 01:39:11;;;;;;;4.18;3.78;;;;;;;10.11;68.58;98441.72;4089237;28;20254;-52
2022/05/03 01:41:26;;;;;;;4.53;4.22;;;;;;;10.10;68.71;98444.69;4100999;28;20656;-52
2022/05/03 01:43:52;;;;;;;4.45;4.05;;;;;;;10.12;68.94;98437.06;4087847;28;20313;-53
2022/05/03 01:46:10;;;;;;;3.45;3.15;;;;;;;10.08;68.72;98433.19;4100538;28;20231;-54
2022/05/03 01:50:18;;;;;;;4.40;4.10;;;;;;;10.07;68.97;98435.09;4090089;28;20223;-52
2022/05/03 01:51:09;;;;;;;4.25;3.70;;;;;;;10.04;68.87;98432.84;4087648;28;20207;-54
2022/05/03 01:53:15;;;;;;;3.20;2.95;;;;;;;10.06;69.16;98438.06;4071061;29;20212;-54
2022/05/03 01:55:19;;;;;;;4.45;4.15;;;;;;;10.00;68.80;98434.38;4103293;28;20238;-53
2022/05/03 01:57:58;;;;;;;4.22;3.90;;;;;;;9.91;68.95;98435.03;4101391;28;20213;-53
2022/05/03 02:00:06;;;;;;;3.70;3.47;;;;;;;9.81;69.29;98434.88;4101789;28;20591;-54
2022/05/03 02:02:29;;;;;;;3.92;3.60;;;;;;;9.76;69.25;98454.72;4085948;28;20199;-54
2022/05/03 02:05:05;;;;;;;4.32;4.03;;;;;;;9.74;69.13;98443.22;4092472;28;20308;-54
2022/05/03 02:07:27;;;;;;;4.50;4.10;;;;;;;9.76;69.36;98440.25;4108937;28;21034;-54
2022/05/03 02:09:59;;;;;;;3.53;3.22;;;;;;;9.73;69.33;98438.00;4107638;28;20234;-53
2022/05/03 02:12:14;;;;;;;4.07;3.70;;;;;;;9.66;69.52;98435.44;4106284;28;20258;-54
2022/05/03 02:14:44;;;;;;;3.85;3.60;;;;;;;9.66;69.67;98440.06;4107150;28;20198;-54
2022/05/03 02:17:10;;;;;;;4.75;4.43;;;;;;;9.66;69.44;98426.41;4108848;28;20223;-54
2022/05/03 02:19:31;;;;;;;4.25;3.88;;;;;;;9.67;69.47;98428.09;4108247;28;20289;-54
2022/05/03 02:21:57;;;;;;;4.07;3.05;;;;;;;9.67;69.54;98428.09;4110787;28;20261;-54
2022/05/03 02:24:03;;;;;;;4.47;4.07;;;;;;;9.61;69.79;98424.41;4095564;28;20737;-54
2022/05/03 02:26:30;;;;;;;4.18;3.97;;;;;;;9.59;69.36;98423.00;4092380;28;20266;-54
2022/05/03 02:28:59;;;;;;;4.50;4.15;;;;;;;9.54;69.36;98422.94;4090645;28;20223;-54
2022/05/03 02:31:04;;;;;;;5.28;4.82;;;;;;;9.55;69.74;98427.31;4106700;28;20688;-53
2022/05/03 02:33:32;;;;;;;3.75;3.55;;;;;;;9.59;69.53;98431.19;4104712;28;20252;-54
2022/05/03 02:35:34;;;;;;;3.58;3.38;;;;;;;9.64;69.33;98429.41;4086536;28;20567;-54
2022/05/03 02:37:46;;;;;;;9.32;4.55;;;;;;;9.61;69.56;98423.59;4106745;28;20262;-54
2022/05/03 02:40:02;;;;;;;5.18;4.68;;;;;;;9.59;69.60;98420.25;4108181;28;20241;-54
2022/05/03 02:42:05;;;;;;;3.70;3.30;;;;;;;9.55;69.33;98428.13;4093415;28;20287;-54
2022/05/03 02:44:08;;;;;;;4.45;4.03;;;;;;;9.56;69.33;98418.03;4080754;29;20211;-54
2022/05/03 02:46:51;;;;;;;4.93;4.53;;;;;;;9.61;69.67;98426.34;4099053;28;20298;-54
2022/05/03 02:49:02;;;;;;;3.97;3.72;;;;;;;9.57;69.88;98422.44;4090696;28;20742;-54
2022/05/03 02:51:07;;;;;;;6.97;3.97;;;;;;;9.55;69.39;98419.13;4108489;28;20712;-54
2022/05/03 02:53:16;;;;;;;4.20;3.90;;;;;;;9.56;69.25;98416.13;4090544;28;20210;-54
2022/05/03 02:55:50;;;;;;;3.55;3.25;;;;;;;9.55;69.46;98425.41;4082378;29;20216;-53
2022/05/03 02:58:13;;;;;;;5.20;4.80;;;;;;;9.56;69.95;98418.03;4092081;28;20211;-53
2022/05/03 03:02:43;;;;;;;4.38;4.07;;;;;;;9.49;69.99;98420.09;4093904;28;20215;-53
2022/05/03 03:04:55;;;;;;;4.93;4.55;;;;;;;9.47;69.88;98427.69;4091902;28;20220;-54
2022/05/03 03:06:58;;;;;;;4.13;3.83;;;;;;;9.44;70.03;98425.47;4090380;28;20235;-54
2022/05/03 03:09:01;;;;;;;4.72;4.38;;;;;;;9.43;70.63;98426.53;4091928;28;20264;-52
2022/05/03 03:11:09;;;;;;;4.38;4.00;;;;;;;9.42;70.31;98433.09;4095374;28;20223;-53
2022/05/03 03:13:33;;;;;;;3.67;3.40;;;;;;;9.44;70.38;98433.66;4092902;28;20211;-54
2022/05/03 03:15:39;;;;;;;4.13;3.83;;;;;;;9.47;70.39;98427.69;4088526;28;20235;-52
2022/05/03 03:17:43;;;;;;;4.82;4.43;;;;;;;9.48;70.38;98423.91;4089267;28;20694;-53
2022/05/03 03:20:04;;;;;;;5.05;4.65;;;;;;;9.48;70.43;98423.91;4102709;28;20293;-54
2022/05/03 03:22:13;;;;;;;4.72;4.20;;;;;;;9.48;70.51;98423.91;4104344;28;20645;-54
2022/05/03 03:24:16;;;;;;;4.05;3.72;;;;;;;9.47;70.25;98427.69;4094814;28;20234;-52
2022/05/03 03:26:20;;;;;;;4.78;4.38;;;;;;;9.49;70.35;98425.56;4087452;28;20235;-54
2022/05/03 03:28:22;;;;;;;6.22;3.90;;;;;;;9.48;69.97;98418.44;4088277;28;20270;-54
2022/05/03 03:30:24;;;;;;;4.10;3.80;;;;;;;9.47;69.76;98423.06;4104732;28;20266;-54
2022/05/03 03:32:27;;;;;;;4.90;4.55;;;;;;;9.44;69.95;98428.19;4092429;28;20203;-54
2022/05/03 03:34:28;;;;;;;4.35;3.97;;;;;;;9.43;69.85;98427.34;4104686;28;20261;-54
2022/05/03 03:36:31;;;;;;;3.38;3.08;;;;;;;9.45;69.69;98427.13;4093220;28;20223;-54
2022/05/03 03:38:39;;;;;;;4.82;4.13;;;;;;;9.46;69.73;98428.78;4094921;28;20207;-53
2022/05/03 03:40:45;;;;;;;3.22;3.03;;;;;;;9.46;70.14;98431.50;4102184;28;20199;-54
2022/05/03 03:42:48;;;;;;;4.35;4.05;;;;;;;9.47;69.81;98427.69;4104569;28;20212;-54
2022/05/03 03:44:49;;;;;;;5.00;4.60;;;;;;;9.46;69.90;98421.41;4076578;29;20279;-54
2022/05/03 03:46:51;;;;;;;5.65;5.15;;;;;;;9.43;70.24;98421.06;4086308;29;20227;-54
2022/05/03 03:48:54;;;;;;;4.28;3.88;;;;;;;9.37;70.22;98422.91;4088675;28;20279;-53
2022/05/03 03:50:56;;;;;;;5.38;4.95;;;;;;;9.26;70.55;98423.75;4090523;28;20667;-52
2022/05/03 03:52:58;;;;;;;5.28;4.88;;;;;;;9.25;70.57;98424.84;4094991;28;20239;-52
2022/05/03 03:55:02;;;;;;;3.42;3.13;;;;;;;9.31;71.01;98420.28;4096094;29;20215;-52
2022/05/03 03:57:09;;;;;;;5.43;4.78;;;;;;;9.30;71.37;98424.94;4087548;28;20234;-52
2022/05/03 03:59:10;;;;;;;5.53;5.03;;;;;;;9.32;71.15;98421.94;4087541;28;20200;-52
2022/05/03 04:01:12;;;;;;;4.18;3.88;;;;;;;9.33;71.02;98426.34;4087711;28;20263;-53
2022/05/03 04:03:14;;;;;;;5.47;5.07;;;;;;;9.32;70.56;98419.22;4094292;28;20314;-53
2022/05/03 04:05:18;;;;;;;5.13;4.72;;;;;;;9.29;71.23;98414.25;4095305;29;20752;-53
2022/05/03 04:07:20;;;;;;;5.32;4.82;;;;;;;9.30;71.32;98415.91;4095325;28;20663;-53
2022/05/03 04:09:22;;;;;;;5.00;4.60;;;;;;;9.29;70.87;98411.53;4090280;28;20235;-52
2022/05/03 04:11:23;;;;;;;5.13;4.72;;;;;;;9.32;70.98;98421.94;4092443;28;20208;-53
2022/05/03 04:13:25;;;;;;;5.75;5.35;;;;;;;9.36;71.29;98425.88;4080954;29;20213;-52
2022/05/03 04:15:31;;;;;;;5.28;4.82;;;;;;;9.38;70.83;98423.69;4104360;28;20234;-52
2022/05/03 04:17:32;;;;;;;5.25;4.75;;;;;;;9.38;70.68;98423.69;4090640;28;20238;-53
2022/05/03 04:19:35;;;;;;;3.53;3.25;;;;;;;9.41;71.27;98425.97;4102541;28;20250;-53
2022/05/03 04:21:37;;;;;;;5.57;5.18;;;;;;;9.39;71.42;98425.34;4076786;29;20235;-53
2022/05/03 04:23:38;;;;;;;4.85;4.15;;;;;;;9.39;71.74;98430.81;4095515;29;20214;-53
2022/05/03 04:25:40;;;;;;;5.35;4.95;;;;;;;9.38;71.53;98426.44;4087476;28;20306;-53
2022/05/03 04:27:42;;;;;;;5.43;4.95;;;;;;;9.40;71.90;98421.56;4089341;28;20705;-52
2022/05/03 04:29:43;;;;;;;5.93;5.43;;;;;;;9.39;71.25;98426.19;4090062;29;20227;-53
2022/05/03 04:31:45;;;;;;;5.05;4.60;;;;;;;9.43;70.96;98423.81;4102556;28;20215;-52
2022/05/03 04:33:47;;;;;;;5.10;4.75;;;;;;;9.45;71.29;98435.31;4102932;28;20246;-53
2022/05/03 04:35:48;;;;;;;5.90;5.35;;;;;;;9.47;71.55;98434.00;4103746;28;20228;-53
2022/05/03 04:37:50;;;;;;;11.73;6.95;;;;;;;9.50;71.40;98432.69;4079489;29;20212;-53
2022/05/03 04:39:52;;;;;;;16.35;6.68;;;;;;;9.52;71.11;98430.53;4085770;28;20208;-53
2022/05/03 04:41:54;;;;;;;5.82;5.10;;;;;;;9.56;71.34;98431.69;4084079;28;20212;-54
2022/05/03 04:43:56;;;;;;;5.95;5.30;;;;;;;9.57;70.71;98434.19;4102000;28;20235;-53
2022/05/03 04:45:59;;;;;;;6.97;5.70;;;;;;;9.60;71.18;98439.16;4076975;29;20246;-54
2022/05/03 04:48:00;;;;;;;5.07;4.65;;;;;;;9.62;70.96;98441.66;4103871;28;20712;-54
2022/05/03 04:50:03;;;;;;;4.07;3.80;;;;;;;9.63;71.10;98438.66;4090129;29;20250;-54
2022/05/03 04:52:05;;;;;;;5.57;5.10;;;;;;;9.67;70.80;98441.75;4087008;29;20211;-54
2022/05/03 04:54:07;;;;;;;5.30;4.90;;;;;;;9.70;70.99;98433.88;4087441;28;20581;-53
2022/05/03 04:56:15;;;;;;;5.03;4.63;;;;;;;9.73;70.79;98438.84;4092401;29;20251;-53
2022/05/03 04:58:17;;;;;;;5.35;4.95;;;;;;;9.77;70.81;98439.19;4087508;29;20207;-54
2022/05/03 05:00:19;;;;;;;5.68;5.22;;;;;;;9.82;70.88;98436.53;4092625;28;21558;-53
2022/05/03 05:02:21;;;;;;;4.78;4.38;;;;;;;9.84;71.05;98440.69;4087180;28;20203;-52
2022/05/03 05:04:23;;;;;;;5.63;5.22;;;;;;;9.87;71.03;98444.84;4103692;28;20239;-53
2022/05/03 05:06:25;;;;;;;5.00;4.55;;;;;;;9.89;70.71;98448.94;4101864;28;20231;-52
2022/05/03 05:08:26;;;;;;;10.73;4.43;;;;;;;9.93;70.57;98446.53;4087302;28;20207;-53
2022/05/03 05:10:28;;;;;;;5.07;4.68;;;;;;;9.96;70.74;98448.81;4093120;29;20262;-53
2022/05/03 05:12:30;;;;;;;6.15;5.55;;;;;;;10.01;70.58;98451.63;4102974;28;20217;-53
2022/05/03 05:14:33;;;;;;;6.40;5.90;;;;;;;10.03;70.73;98454.94;4094017;29;20298;-53
2022/05/03 05:16:34;;;;;;;4.13;3.83;;;;;;;10.04;70.97;98445.69;4089909;29;20239;-53
2022/05/03 05:18:36;;;;;;;4.53;4.10;;;;;;;10.08;70.95;98452.31;4101698;28;20218;-53
2022/05/03 05:20:38;;;;;;;5.65;5.15;;;;;;;10.14;70.77;98451.34;4090918;28;20276;-53
2022/05/03 05:22:41;;;;;;;4.18;3.80;;;;;;;10.15;70.87;98455.72;4101101;28;20207;-53
2022/05/03 05:25:01;;;;;;;5.25;4.82;;;;;;;10.18;70.95;98452.47;4086214;28;20227;-54
2022/05/03 05:27:03;;;;;;;5.30;4.90;;;;;;;10.22;70.61;98453.66;4088660;28;20233;-52
2022/05/03 05:29:05;;;;;;;4.50;4.10;;;;;;;10.23;71.23;98455.31;4086178;28;20581;-53
2022/05/03 05:31:07;;;;;;;4.78;4.35;;;;;;;10.27;71.17;98451.81;4088463;28;20207;-53
2022/05/03 05:33:09;;;;;;;4.25;3.95;;;;;;;10.32;70.95;98453.78;4088044;29;20323;-53
2022/05/03 05:35:12;;;;;;;5.35;4.85;;;;;;;10.36;70.83;98453.03;4092463;29;20685;-52
2022/05/03 05:37:19;;;;;;;6.30;5.80;;;;;;;10.43;70.58;98445.50;4085688;29;20211;-53
2022/05/03 05:39:21;;;;;;;5.63;5.13;;;;;;;10.48;70.61;98458.44;4090389;28;20254;-52
2022/05/03 05:41:22;;;;;;;5.20;4.80;;;;;;;10.56;70.45;98444.31;4088370;29;20728;-53
2022/05/03 05:43:24;;;;;;;4.75;4.45;;;;;;;10.62;70.50;98459.72;4093418;28;20215;-53
2022/05/03 05:45:26;;;;;;;5.70;3.78;;;;;;;10.69;70.56;98455.72;4077920;29;20212;-58
2022/05/03 05:47:28;;;;;;;4.57;4.18;;;;;;;10.74;70.49;98452.25;4088162;28;20587;-52
2022/05/03 05:49:29;;;;;;;4.47;4.18;;;;;;;10.77;70.39;98450.66;4093424;28;20275;-52
2022/05/03 05:51:31;;;;;;;5.40;4.90;;;;;;;10.81;71.04;98459.19;4092345;28;20215;-52
2022/05/03 05:53:33;;;;;;;5.07;4.68;;;;;;;10.83;70.47;98460.59;4086581;28;20259;-54
2022/05/03 05:55:36;;;;;;;5.13;4.78;;;;;;;10.87;70.62;98458.16;4087451;28;20274;-56
2022/05/03 05:57:38;;;;;;;5.72;5.22;;;;;;;10.89;70.52;98473.25;4099641;28;20282;-53
2022/05/03 05:59:39;;;;;;;5.43;5.00;;;;;;;10.94;70.74;98464.28;4095138;29;20218;-53
2022/05/03 06:01:41;;;;;;;6.28;5.78;;;;;;;10.99;70.95;98467.09;4100229;28;20210;-53
2022/05/03 06:03:43;;;;;;;5.13;4.65;;;;;;;11.03;70.86;98471.81;4101477;28;20245;-51
2022/05/03 06:05:45;;;;;;;4.63;4.22;;;;;;;11.08;71.02;98465.56;4085961;29;20267;-51
2022/05/03 06:07:46;;;;;;;4.70;4.40;;;;;;;11.14;71.13;98476.34;4087839;28;20267;-52
2022/05/03 06:09:48;;;;;;;5.03;4.63;;;;;;;11.19;70.67;98476.41;4091749;28;20219;-52
2022/05/03 06:11:51;;;;;;;4.93;4.53;;;;;;;11.24;70.70;98470.16;4087723;28;20208;-51
2022/05/03 06:13:52;;;;;;;4.85;4.45;;;;;;;11.30;70.92;98469.97;4092200;28;20242;-52
2022/05/03 06:15:54;;;;;;;5.68;5.18;;;;;;;11.36;70.69;98477.16;4087443;28;20235;-52
2022/05/03 06:17:56;;;;;;;4.65;4.32;;;;;;;11.22;71.04;98478.63;4102040;28;20207;-54
2022/05/03 06:19:58;;;;;;;14.93;4.55;;;;;;;11.26;71.13;98473.47;4092031;28;20224;-53
2022/05/03 06:21:59;;;;;;;4.30;3.97;;;;;;;11.35;71.02;98478.25;4092809;28;20344;-52
2022/05/03 06:24:01;;;;;;;4.45;4.13;;;;;;;11.46;70.63;98482.78;4089838;28;20246;-54
2022/05/03 06:26:05;;;;;;;6.63;5.20;;;;;;;11.59;70.46;98490.63;4090458;29;20227;-52
2022/05/03 06:28:14;;;;;;;4.60;4.28;;;;;;;11.68;70.32;98489.06;4085476;28;20208;-54
2022/05/03 06:30:15;;;;;;;4.63;4.22;;;;;;;11.74;69.90;98492.69;4092063;28;20262;-52
2022/05/03 06:32:17;;;;;;;5.10;4.65;;;;;;;11.82;70.10;98490.31;4093058;28;20211;-51
2022/05/03 06:34:19;;;;;;;4.45;4.05;;;;;;;11.65;70.43;98497.78;4086793;28;20207;-52
2022/05/03 06:36:21;;;;;;;5.45;4.97;;;;;;;11.79;70.13;98493.59;4091577;29;20232;-53
2022/05/03 06:38:23;;;;;;;6.05;4.82;;;;;;;11.84;70.24;98493.63;4093028;28;20559;-53
2022/05/03 06:40:24;;;;;;;8.70;4.57;;;;;;;11.97;70.56;98493.19;4085788;28;20809;-52
2022/05/03 06:42:26;;;;;;;5.20;4.80;;;;;;;11.99;70.75;98496.53;4101358;28;20654;-53
2022/05/03 06:44:28;;;;;;;4.18;3.88;;;;;;;12.09;70.14;98496.63;4087685;28;20617;-54
2022/05/03 06:46:30;;;;;;;6.38;5.18;;;;;;;12.29;69.81;98496.81;4087907;28;20286;-52
2022/05/03 06:48:33;;;;;;;4.85;4.45;;;;;;;12.38;69.98;98495.22;4091868;28;20294;-54
2022/05/03 06:50:35;;;;;;;3.65;3.25;;;;;;;12.50;69.34;98497.81;4093840;28;20235;-51
2022/05/03 06:52:37;;;;;;;5.18;4.78;;;;;;;12.62;69.09;98496.50;4090257;28;20211;-51
2022/05/03 06:54:39;;;;;;;4.47;4.18;;;;;;;12.58;68.97;98506.34;4090925;28;20238;-51
2022/05/03 06:56:41;;;;;;;3.92;3.63;;;;;;;12.68;68.63;98500.13;4091149;28;20242;-56
2022/05/03 06:58:43;;;;;;;4.85;4.45;;;;;;;12.84;68.41;98499.94;4102370;28;20280;-52
2022/05/03 07:00:45;;;;;;;6.80;3.97;;;;;;;12.89;68.02;98504.69;4095201;28;20590;-52
2022/05/03 07:02:47;;;;;;;4.97;4.60;;;;;;;12.70;68.07;98504.25;4080144;29;20247;-52
2022/05/03 07:04:49;;;;;;;4.85;4.45;;;;;;;12.81;67.96;98503.25;4088235;28;20290;-53
2022/05/03 07:06:52;;;;;;;4.88;3.85;;;;;;;12.85;67.63;98507.09;4090707;28;20262;-55
2022/05/03 07:08:54;;;;;;;3.60;3.30;;;;;;;12.99;67.48;98502.84;4080393;29;20268;-52
2022/05/03 07:10:56;;;;;;;4.28;3.88;;;;;;;13.00;67.59;98499.00;4097114;28;20227;-52
2022/05/03 07:12:57;;;;;;;4.93;4.53;;;;;;;12.98;67.63;98506.66;4091110;28;20637;-50
2022/05/03 07:15:00;;;;;;;4.03;3.72;;;;;;;13.03;67.18;98498.47;4106058;28;20211;-51
2022/05/03 07:17:02;;;;;;;7.35;4.03;;;;;;;13.01;67.29;98505.31;4095426;29;20227;-53
2022/05/03 07:23:47;;;;;;;3.95;3.55;;;;;;;13.09;67.43;98507.56;4090422;29;20208;-52
2022/05/03 07:25:50;;;;;;;4.35;3.95;;;;;;;13.08;67.39;98506.75;4088924;28;20768;-51
2022/05/03 07:27:52;;;;;;;4.00;3.63;;;;;;;13.16;67.44;98508.16;4098250;28;20600;-52
2022/05/03 07:29:53;;;;;;;4.20;3.90;;;;;;;13.23;67.57;98512.31;4096527;28;20219;-52
2022/05/03 07:31:55;;;;;;;4.90;4.50;;;;;;;13.33;67.32;98511.53;4090389;28;20282;-52
2022/05/03 07:33:57;;;;;;;3.92;3.63;;;;;;;13.28;67.49;98506.84;4075849;29;20251;-51
2022/05/03 07:35:58;;;;;;;6.32;3.80;;;;;;;13.40;67.74;98506.63;4094523;28;20227;-52
2022/05/03 07:38:01;;;;;;;3.75;3.45;;;;;;;13.52;67.53;98510.81;4092288;28;20642;-52
2022/05/03 07:40:03;;;;;;;5.13;4.65;;;;;;;13.64;67.00;98514.13;4089077;28;20745;-52
2022/05/03 07:42:08;;;;;;;4.22;3.83;;;;;;;13.52;67.41;98513.56;4089112;28;20222;-52
2022/05/03 07:44:09;;;;;;;3.90;3.53;;;;;;;13.72;67.15;98513.63;4093684;28;20231;-51
2022/05/03 07:46:11;;;;;;;4.57;4.18;;;;;;;13.82;66.92;98519.16;4094053;28;20238;-51
2022/05/03 07:48:13;;;;;;;4.30;3.97;;;;;;;13.88;66.63;98518.06;4090220;28;20215;-51
2022/05/03 07:50:16;;;;;;;4.50;4.10;;;;;;;14.09;65.99;98514.25;4092350;28;21056;-50
2022/05/03 07:52:18;;;;;;;3.33;3.03;;;;;;;14.12;66.05;98518.41;4102520;28;20216;-51
2022/05/03 07:54:20;;;;;;;4.22;3.83;;;;;;;14.19;65.83;98528.09;4088703;28;20207;-51
2022/05/03 07:56:27;;;;;;;4.68;4.13;;;;;;;14.19;65.97;98524.50;4087867;28;20637;-50
2022/05/03 07:58:29;;;;;;;4.07;3.70;;;;;;;14.46;65.83;98525.06;4088152;28;20613;-51
2022/05/03 08:00:31;;;;;;;4.93;4.53;;;;;;;14.46;66.25;98525.06;4090493;28;20334;-53
2022/05/03 08:02:35;;;;;;;4.75;4.32;;;;;;;14.76;65.46;98531.41;4077610;29;20222;-55
2022/05/03 08:04:39;;;;;;;4.13;3.83;;;;;;;14.96;65.18;98528.63;4089914;28;20269;-50
2022/05/03 08:06:41;;;;;;;7.05;4.43;;;;;;;15.30;64.72;98531.59;4093097;28;20748;-51
2022/05/03 08:08:42;;;;;;;4.82;4.38;;;;;;;15.35;64.36;98521.41;4094777;28;20307;-52
2022/05/03 08:10:45;;;;;;;3.63;3.25;;;;;;;15.47;63.84;98521.94;4088857;28;20232;-52
2022/05/03 08:12:53;;;;;;;4.95;4.57;;;;;;;15.48;63.67;98528.25;4101833;28;20200;-53
2022/05/03 08:14:56;;;;;;;4.28;3.92;;;;;;;15.48;63.75;98522.72;4089516;28;20286;-52
2022/05/03 08:16:58;;;;;;;3.75;3.47;;;;;;;15.50;63.12;98518.59;4102851;28;20238;-52
2022/05/03 08:19:00;;;;;;;6.35;4.43;;;;;;;15.67;63.05;98524.59;4102471;28;20210;-51
2022/05/03 08:21:02;;;;;;;3.10;2.90;;;;;;;15.76;62.29;98531.19;4088415;28;20765;-51
2022/05/03 08:23:03;;;;;;;4.35;3.55;;;;;;;15.84;62.19;98530.56;4092629;28;20262;-50
2022/05/03 08:25:06;;;;;;;3.58;3.28;;;;;;;15.72;61.07;98530.13;4089644;28;20228;-51
2022/05/03 08:27:08;;;;;;;3.50;3.20;;;;;;;15.79;61.01;98527.88;4092957;28;20783;-50
2022/05/03 08:29:10;;;;;;;3.17;2.90;;;;;;;15.62;60.85;98530.13;4102625;28;20897;-51
2022/05/03 08:31:12;;;;;;;9.50;4.10;;;;;;;15.36;61.19;98541.56;4087677;28;20232;-50
2022/05/03 08:33:14;;;;;;;2.97;2.33;;;;;;;15.54;60.80;98533.50;4085167;28;20207;-50
2022/05/03 08:35:15;;;;;;;2.03;1.90;;;;;;;15.53;60.93;98534.59;4103981;28;20555;-50
2022/05/03 08:42:01;;;;;;;4.85;3.88;;;;;;;15.14;60.69;98541.00;4087006;28;20283;-54
2022/05/03 08:44:03;;;;;;;3.67;2.97;;;;;;;15.31;61.22;98545.09;4093495;28;20295;-52
2022/05/03 08:46:08;;;;;;;5.47;3.15;;;;;;;15.48;61.39;98540.13;4094441;28;20242;-50
2022/05/03 08:48:11;;;;;;;3.42;3.13;;;;;;;15.45;61.19;98548.97;4086981;28;20661;-50
2022/05/03 08:50:13;;;;;;;2.47;2.28;;;;;;;15.50;61.40;98548.94;4103317;28;20215;-50
2022/05/03 08:52:17;;;;;;;4.13;2.58;;;;;;;15.56;60.88;98547.81;4093584;28;20634;-55
2022/05/03 08:54:20;;;;;;;16.25;3.00;;;;;;;15.59;61.01;98552.78;4107813;28;20211;-50
2022/05/03 08:56:22;;;;;;;2.63;2.42;;;;;;;15.69;60.82;98546.41;4092329;28;20223;-51
2022/05/03 08:58:24;;;;;;;3.22;2.92;;;;;;;15.78;60.50;98539.19;4085177;29;20311;-51
2022/05/03 09:00:25;;;;;;;3.17;2.92;;;;;;;15.85;60.45;98550.75;4086821;28;20628;-50
2022/05/03 09:02:27;;;;;;;2.75;2.55;;;;;;;15.84;60.42;98549.09;4088365;28;20250;-50
2022/05/03 09:04:29;;;;;;;3.28;2.72;;;;;;;16.05;60.06;98556.16;4088697;28;20286;-53
2022/05/03 09:06:41;;;;;;;5.90;3.00;;;;;;;16.01;58.07;98555.06;4083059;28;20255;-53
2022/05/03 09:08:49;;;;;;;3.60;3.30;;;;;;;15.94;58.12;98558.16;4081809;28;20211;-53
2022/05/03 09:10:53;;;;;;;2.92;2.72;;;;;;;15.92;57.78;98552.09;4087307;28;20858;-52
2022/05/03 09:13:17;;;;;;;1.90;1.70;;;;;;;15.83;58.31;98558.47;4085685;28;20245;-51
2022/05/03 09:15:30;;;;;;;2.42;2.20;;;;;;;16.02;58.71;98557.56;4086634;28;20719;-51
2022/05/03 09:17:43;;;;;;;9.00;3.33;;;;;;;15.89;57.57;98552.66;4097556;28;20222;-55
2022/05/03 09:19:45;;;;;;;3.35;3.05;;;;;;;15.85;58.28;98548.81;4069892;29;20299;-53
2022/05/03 09:24:09;;;;;;;3.15;2.85;;;;;;;17.31;57.58;98557.69;4087617;29;20216;-52
2022/05/03 09:26:19;;;;;;;3.55;3.25;;;;;;;18.25;56.64;98554.91;4095677;29;20278;-52
2022/05/03 09:28:23;;;;;;;3.53;3.22;;;;;;;18.90;55.68;98551.13;4090665;28;20246;-51
2022/05/03 09:30:24;;;;;;;2.88;2.67;;;;;;;19.40;53.89;98561.41;4090576;29;20211;-51
2022/05/03 09:32:56;;;;;;;2.15;2.05;;;;;;;19.96;53.10;98553.59;4102365;28;20767;-54
2022/05/03 09:34:57;;;;;;;3.35;3.05;;;;;;;20.13;51.31;98564.94;4076445;29;20208;-52
2022/05/03 09:37:09;;;;;;;2.47;2.28;;;;;;;19.32;51.22;98556.56;4086209;28;20256;-52
2022/05/03 09:39:24;;;;;;;2.97;2.72;;;;;;;19.78;52.36;98551.78;4088353;29;20214;-53
2022/05/03 09:41:25;;;;;;;3.40;2.10;;;;;;;20.25;51.40;98552.16;4104466;28;20199;-53
2022/05/03 09:43:27;;;;;;;4.38;2.55;;;;;;;20.82;50.76;98558.91;4089252;29;20721;-53
2022/05/03 09:45:29;;;;;;;2.50;2.20;;;;;;;21.15;50.19;98557.53;4088605;29;20219;-52
2022/05/03 09:47:52;;;;;;;2.72;2.53;;;;;;;21.12;49.27;98555.41;4094030;29;20264;-55
2022/05/03 09:49:54;;;;;;;2.90;2.45;;;;;;;21.29;49.14;98549.94;4090192;29;20215;-52
2022/05/03 09:51:58;;;;;;;2.85;2.38;;;;;;;21.33;49.15;98549.00;4094373;29;20235;-53
2022/05/03 09:54:00;;;;;;;2.58;2.38;;;;;;;21.39;48.54;98549.69;4087004;29;20214;-53
2022/05/03 09:56:09;;;;;;;2.35;2.15;;;;;;;21.53;49.01;98555.97;4088157;29;20231;-52
2022/05/03 09:58:12;;;;;;;3.55;2.08;;;;;;;21.52;47.58;98551.56;4088374;29;20215;-53
2022/05/03 10:00:17;;;;;;;2.40;2.20;;;;;;;20.71;48.45;98549.16;4088708;28;20219;-52
2022/05/03 10:02:24;;;;;;;3.47;3.08;;;;;;;20.41;49.58;98560.97;4087549;29;20199;-52
2022/05/03 10:04:26;;;;;;;2.85;2.42;;;;;;;20.80;50.07;98559.22;4102813;28;20203;-52
2022/05/03 10:06:29;;;;;;;2.30;2.10;;;;;;;21.13;49.19;98565.38;4095561;29;20219;-54
2022/05/03 10:08:30;;;;;;;2.33;2.13;;;;;;;21.45;48.82;98552.00;4095713;29;20681;-52
2022/05/03 10:10:32;;;;;;;2.30;2.20;;;;;;;21.64;48.48;98543.44;4087457;29;20203;-52
2022/05/03 10:12:37;;;;;;;2.20;2.00;;;;;;;21.36;48.08;98539.16;4089197;29;20251;-54